createdAt,value
2022-09-20T00:01:22.808Z,68.79
2022-09-20T00:03:53.558Z,68.49
2022-09-20T00:06:24.089Z,68.28
2022-09-20T00:08:51.896Z,68.71
2022-09-20T00:11:22.732Z,68.89
2022-09-20T00:13:52.454Z,68.64
2022-09-20T00:16:23.848Z,68.83
2022-09-20T00:18:52.904Z,68.74
2022-09-20T00:21:23.837Z,68.51
2022-09-20T00:23:52.456Z,68.70
2022-09-20T00:26:21.142Z,68.87
2022-09-20T00:28:48.878Z,68.72
2022-09-20T00:31:16.792Z,68.70
2022-09-20T00:34:03.341Z,68.10
2022-09-20T00:36:31.477Z,69.19
2022-09-20T00:39:02.345Z,69.63
2022-09-20T00:41:32.091Z,69.56
2022-09-20T00:44:00.606Z,69.06
2022-09-20T00:46:40.740Z,69.39
2022-09-20T00:49:18.963Z,69.48
2022-09-20T00:51:50.575Z,69.52
2022-09-20T00:54:20.921Z,69.59
2022-09-20T00:56:49.842Z,69.74
2022-09-20T00:59:19.150Z,69.71
2022-09-20T01:01:49.892Z,69.54
2022-09-20T01:04:19.604Z,69.79
2022-09-20T01:06:47.324Z,68.74
2022-09-20T01:09:15.207Z,68.88
2022-09-20T01:11:43.655Z,69.91
2022-09-20T01:14:13.907Z,70.00
2022-09-20T01:16:41.741Z,70.08
2022-09-20T01:19:38.345Z,69.84
2022-09-20T01:22:13.927Z,69.42
2022-09-20T01:24:54.360Z,69.65
2022-09-20T01:27:40.770Z,69.59
2022-09-20T01:30:14.049Z,69.77
2022-09-20T01:32:45.767Z,69.93
2022-09-20T01:35:16.009Z,69.71
2022-09-20T01:38:22.422Z,69.65
2022-09-20T01:41:15.523Z,69.45
2022-09-20T01:43:52.302Z,69.51
2022-09-20T01:46:35.280Z,69.61
2022-09-20T01:49:31.404Z,69.89
2022-09-20T01:52:44.230Z,69.60
2022-09-20T01:55:20.911Z,69.29
2022-09-20T01:58:07.314Z,69.62
2022-09-20T02:00:38.083Z,69.27
2022-09-20T02:03:38.895Z,69.85
2022-09-20T02:06:32.586Z,69.12
2022-09-20T02:09:08.552Z,69.68
2022-09-20T02:11:51.811Z,70.23
2022-09-20T02:14:37.711Z,69.91
2022-09-20T02:17:13.851Z,69.95
2022-09-20T02:19:50.225Z,69.60
2022-09-20T02:22:39.236Z,69.62
2022-09-20T02:25:34.718Z,69.21
2022-09-20T02:28:24.353Z,69.48
2022-09-20T02:31:14.200Z,69.80
2022-09-20T02:34:09.209Z,69.32
2022-09-20T02:37:03.060Z,69.59
2022-09-20T02:39:57.777Z,69.95
2022-09-20T02:42:31.555Z,69.60
2022-09-20T02:45:09.805Z,69.46
2022-09-20T02:47:38.805Z,69.96
2022-09-20T02:50:31.442Z,70.19
2022-09-20T02:53:10.942Z,70.00
2022-09-20T02:56:01.845Z,70.01
2022-09-20T02:59:02.887Z,69.80
2022-09-20T03:01:49.163Z,69.99
2022-09-20T03:04:38.031Z,70.06
2022-09-20T03:07:47.600Z,69.82
2022-09-20T03:10:36.352Z,69.57
2022-09-20T03:13:15.285Z,69.45
2022-09-20T03:15:42.932Z,69.74
2022-09-20T03:18:14.936Z,70.43
2022-09-20T03:21:00.426Z,70.25
2022-09-20T03:23:46.106Z,70.53
2022-09-20T03:26:47.795Z,70.52
2022-09-20T03:29:31.266Z,70.19
2022-09-20T03:32:20.455Z,70.15
2022-09-20T03:35:17.611Z,69.97
2022-09-20T03:37:51.089Z,70.30
2022-09-20T03:40:46.534Z,70.08
2022-09-20T03:43:29.674Z,70.37
2022-09-20T03:46:18.493Z,70.20
2022-09-20T03:49:04.437Z,70.15
2022-09-20T03:51:58.953Z,69.42
2022-09-20T03:54:57.535Z,69.71
2022-09-20T03:58:08.721Z,69.21
2022-09-20T04:00:53.719Z,69.68
2022-09-20T04:03:51.401Z,69.68
2022-09-20T04:06:40.681Z,69.49
2022-09-20T04:09:17.236Z,69.46
2022-09-20T04:11:59.945Z,69.48
2022-09-20T04:14:59.834Z,69.70
2022-09-20T04:17:43.204Z,70.00
2022-09-20T04:20:34.844Z,69.38
2022-09-20T04:23:12.254Z,69.72
2022-09-20T04:25:44.107Z,70.14
2022-09-20T04:28:23.804Z,69.59
2022-09-20T04:30:51.980Z,69.12
2022-09-20T04:33:29.425Z,69.28
2022-09-20T04:36:31.213Z,70.36
2022-09-20T04:39:16.157Z,69.10
2022-09-20T04:42:18.222Z,69.40
2022-09-20T04:44:49.531Z,69.29
2022-09-20T04:47:42.380Z,69.74
2022-09-20T04:50:39.361Z,69.81
2022-09-20T04:53:14.641Z,70.11
2022-09-20T04:55:56.883Z,70.11
2022-09-20T04:58:47.048Z,69.96
2022-09-20T05:01:20.532Z,69.79
2022-09-20T05:04:13.113Z,69.72
2022-09-20T05:06:52.915Z,70.16
2022-09-20T05:09:45.795Z,70.13
2022-09-20T05:12:22.555Z,69.73
2022-09-20T05:15:01.762Z,69.40
2022-09-20T05:17:51.284Z,69.45
2022-09-20T05:20:52.489Z,69.30
2022-09-20T05:23:27.175Z,69.04
2022-09-20T05:26:17.120Z,68.91
2022-09-20T05:28:50.640Z,68.85
2022-09-20T05:31:46.256Z,68.78
2022-09-20T05:34:34.417Z,68.66
2022-09-20T05:37:12.369Z,68.48
2022-09-20T05:40:08.180Z,68.56
2022-09-20T05:42:55.872Z,68.41
2022-09-20T05:45:26.642Z,68.47
2022-09-20T05:48:21.163Z,68.55
2022-09-20T05:51:26.067Z,68.52
2022-09-20T05:54:18.113Z,68.59
2022-09-20T05:56:58.677Z,68.51
2022-09-20T05:59:45.251Z,68.61
2022-09-20T06:02:22.461Z,68.40
2022-09-20T06:05:16.995Z,68.59
2022-09-20T06:07:47.905Z,68.37
2022-09-20T06:10:43.604Z,68.22
2022-09-20T06:13:33.299Z,67.89
2022-09-20T06:16:06.216Z,67.74
2022-09-20T06:18:42.814Z,67.38
2022-09-20T06:21:28.579Z,67.23
2022-09-20T06:23:58.579Z,67.30
2022-09-20T06:26:29.522Z,67.40
2022-09-20T06:29:04.077Z,67.25
2022-09-20T06:31:31.992Z,66.85
2022-09-20T06:34:10.996Z,67.20
2022-09-20T06:36:58.756Z,67.10
2022-09-20T06:40:08.730Z,66.98
2022-09-20T06:42:37.628Z,67.03
2022-09-20T06:45:05.563Z,66.70
2022-09-20T06:47:36.883Z,66.78
2022-09-20T06:50:07.063Z,66.67
2022-09-20T06:52:35.682Z,66.66
2022-09-20T06:55:07.459Z,66.33
2022-09-20T06:57:37.767Z,66.44
2022-09-20T07:00:10.231Z,66.34
2022-09-20T07:02:37.874Z,66.22
2022-09-20T07:05:07.508Z,66.18
2022-09-20T07:07:35.060Z,65.91
2022-09-20T07:10:02.787Z,65.85
2022-09-20T07:12:33.530Z,64.41
2022-09-20T07:15:02.083Z,63.94
2022-09-20T07:17:29.904Z,64.44
2022-09-20T07:19:57.562Z,63.58
2022-09-20T07:22:27.130Z,63.07
2022-09-20T07:24:55.340Z,63.15
2022-09-20T07:27:26.377Z,63.58
2022-09-20T07:29:56.607Z,63.40
2022-09-20T07:32:24.390Z,63.54
2022-09-20T07:34:52.529Z,63.52
2022-09-20T07:37:20.613Z,62.93
2022-09-20T07:39:48.334Z,63.47
2022-09-20T07:42:16.248Z,63.19
2022-09-20T07:44:43.838Z,63.25
2022-09-20T07:47:14.172Z,62.45
2022-09-20T07:49:41.867Z,63.63
2022-09-20T07:52:11.163Z,63.36
2022-09-20T07:54:39.862Z,63.78
2022-09-20T07:57:07.858Z,64.28
2022-09-20T07:59:35.562Z,63.66
2022-09-20T08:02:03.839Z,63.41
2022-09-20T08:04:32.993Z,62.93
2022-09-20T08:07:01.517Z,63.21
2022-09-20T08:09:29.156Z,63.53
2022-09-20T08:11:57.671Z,63.52
2022-09-20T08:14:26.122Z,63.79
2022-09-20T08:16:53.893Z,63.56
2022-09-20T08:19:23.071Z,64.00
2022-09-20T08:21:53.348Z,64.40
2022-09-20T08:24:21.673Z,64.27
2022-09-20T08:26:49.484Z,64.72
2022-09-20T08:29:17.431Z,64.63
2022-09-20T08:31:46.457Z,64.10
2022-09-20T08:34:16.167Z,64.66
2022-09-20T08:36:51.822Z,64.82
2022-09-20T08:42:17.955Z,64.77
2022-09-20T08:44:59.502Z,64.89
2022-09-20T08:47:29.574Z,64.79
2022-09-20T08:49:58.073Z,64.29
2022-09-20T08:52:36.250Z,63.98
2022-09-20T08:55:23.393Z,64.28
2022-09-20T08:57:54.579Z,63.97
2022-09-20T09:00:26.110Z,63.30
2022-09-20T09:02:56.154Z,62.80
2022-09-20T09:05:36.346Z,62.24
2022-09-20T09:08:09.563Z,60.87
2022-09-20T09:10:46.104Z,58.64
2022-09-20T09:13:42.902Z,59.97
2022-09-20T09:16:23.179Z,60.25
2022-09-20T09:18:53.311Z,62.97
2022-09-20T09:21:21.207Z,63.64
2022-09-20T09:24:01.919Z,62.82
2022-09-20T09:26:36.328Z,62.17
2022-09-20T09:29:18.833Z,59.00
2022-09-20T09:31:48.639Z,56.72
2022-09-20T09:34:33.983Z,58.79
2022-09-20T09:37:02.217Z,63.08
2022-09-20T09:39:38.308Z,63.41
2022-09-20T09:42:25.760Z,62.67
2022-09-20T09:44:53.433Z,60.45
2022-09-20T09:47:27.641Z,62.72
2022-09-20T09:50:01.670Z,63.77
2022-09-20T09:52:33.445Z,63.39
2022-09-20T09:55:05.631Z,61.84
2022-09-20T09:57:42.414Z,62.19
2022-09-20T10:00:22.304Z,61.25
2022-09-20T10:03:19.522Z,59.84
2022-09-20T10:06:05.546Z,61.21
2022-09-20T10:08:45.193Z,63.03
2022-09-20T10:11:29.287Z,63.82
2022-09-20T10:14:12.357Z,63.26
2022-09-20T10:17:25.968Z,62.63
2022-09-20T10:20:28.946Z,62.30
2022-09-20T10:23:39.821Z,61.81
2022-09-20T10:26:22.714Z,59.88
2022-09-20T10:29:08.772Z,59.97
2022-09-20T10:31:57.196Z,60.09
2022-09-20T10:34:54.505Z,57.05
2022-09-20T10:37:41.187Z,53.83
2022-09-20T10:40:14.808Z,58.52
2022-09-20T10:43:15.934Z,58.13
2022-09-20T10:46:30.368Z,55.62
2022-09-20T10:49:11.914Z,56.39
2022-09-20T10:52:03.339Z,58.90
2022-09-20T10:55:12.530Z,52.38
2022-09-20T10:57:49.111Z,54.04
2022-09-20T11:00:21.523Z,51.74
2022-09-20T11:03:11.090Z,51.35
2022-09-20T11:05:43.162Z,54.62
2022-09-20T11:08:22.675Z,51.97
2022-09-20T11:10:55.967Z,52.63
2022-09-20T11:13:38.783Z,54.17
2022-09-20T11:16:18.506Z,54.09
2022-09-20T11:19:01.925Z,54.57
2022-09-20T11:21:38.391Z,54.79
2022-09-20T11:24:42.156Z,55.32
2022-09-20T11:27:29.604Z,54.10
2022-09-20T11:30:10.526Z,53.10
2022-09-20T11:32:46.735Z,50.30
2022-09-20T11:35:22.698Z,49.17
2022-09-20T11:37:57.503Z,48.98
2022-09-20T11:40:29.024Z,50.60
2022-09-20T11:43:00.003Z,44.76
2022-09-20T11:45:29.289Z,46.41
2022-09-20T11:48:20.030Z,46.83
2022-09-20T11:51:05.828Z,46.90
2022-09-20T11:53:55.570Z,45.61
2022-09-20T11:56:25.808Z,48.48
2022-09-20T11:58:56.492Z,48.54
2022-09-20T12:01:36.651Z,48.28
2022-09-20T12:04:39.059Z,47.15
2022-09-20T12:07:17.974Z,48.46
2022-09-20T12:10:02.033Z,47.47
2022-09-20T12:12:39.594Z,47.22
2022-09-20T12:15:28.912Z,49.96
2022-09-20T12:17:57.758Z,49.31
2022-09-20T12:20:47.280Z,48.78
2022-09-20T12:23:42.948Z,49.29
2022-09-20T12:26:22.585Z,47.68
2022-09-20T12:29:01.920Z,47.62
2022-09-20T12:31:31.043Z,48.24
2022-09-20T12:34:24.727Z,47.47
2022-09-20T12:36:55.199Z,46.38
2022-09-20T12:39:30.517Z,47.24
2022-09-20T12:41:58.940Z,48.19
2022-09-20T12:44:30.558Z,46.84
2022-09-20T12:47:15.935Z,48.17
2022-09-20T12:50:09.259Z,47.99
2022-09-20T12:53:03.930Z,48.78
2022-09-20T12:55:34.780Z,49.65
2022-09-20T12:58:14.849Z,50.00
2022-09-20T13:00:55.978Z,50.29
2022-09-20T13:03:46.924Z,50.09
2022-09-20T13:06:16.353Z,50.11
2022-09-20T13:08:54.240Z,50.76
2022-09-20T13:11:28.988Z,51.39
2022-09-20T13:14:04.734Z,51.95
2022-09-20T13:16:54.585Z,52.43
2022-09-20T13:19:29.300Z,53.38
2022-09-20T13:22:01.781Z,53.85
2022-09-20T13:24:37.707Z,54.44
2022-09-20T13:27:08.856Z,55.18
2022-09-20T13:29:41.271Z,55.96
2022-09-20T13:32:17.480Z,56.66
2022-09-20T13:34:45.854Z,57.20
2022-09-20T13:37:21.037Z,57.74
2022-09-20T13:39:53.907Z,57.73
2022-09-20T13:42:22.255Z,57.99
2022-09-20T13:44:50.253Z,58.24
2022-09-20T13:47:44.583Z,58.41
2022-09-20T13:50:15.272Z,58.26
2022-09-20T13:52:48.641Z,59.00
2022-09-20T13:55:37.790Z,58.89
2022-09-20T13:58:17.264Z,58.38
2022-09-20T14:00:46.076Z,57.52
2022-09-20T14:03:17.340Z,56.74
2022-09-20T14:05:47.140Z,56.46
2022-09-20T14:08:28.041Z,55.89
2022-09-20T14:11:16.603Z,55.20
2022-09-20T14:13:46.983Z,54.88
2022-09-20T14:16:16.546Z,53.84
2022-09-20T14:18:47.233Z,53.71
2022-09-20T14:21:22.802Z,53.79
2022-09-20T14:23:51.550Z,53.80
2022-09-20T14:26:27.829Z,53.97
2022-09-20T14:28:55.606Z,54.01
2022-09-20T14:31:31.684Z,54.20
2022-09-20T14:34:01.416Z,53.17
2022-09-20T14:36:30.681Z,52.93
2022-09-20T14:38:59.504Z,52.53
2022-09-20T14:41:35.031Z,52.93
2022-09-20T14:44:03.617Z,52.37
2022-09-20T14:46:33.892Z,52.60
2022-09-20T14:49:20.620Z,52.88
2022-09-20T14:51:48.769Z,53.37
2022-09-20T14:54:22.868Z,54.35
2022-09-20T14:56:53.063Z,55.83
2022-09-20T14:59:37.062Z,57.34
2022-09-20T15:02:13.369Z,59.88
2022-09-20T15:04:43.103Z,61.46
2022-09-20T15:07:14.156Z,63.67
2022-09-20T15:09:41.818Z,65.28
2022-09-20T15:12:14.171Z,64.71
2022-09-20T15:14:42.369Z,64.39
2022-09-20T15:17:19.627Z,64.17
2022-09-20T15:19:48.028Z,64.55
2022-09-20T15:22:16.224Z,64.44
2022-09-20T15:24:44.188Z,64.66
2022-09-20T15:27:12.279Z,64.01
2022-09-20T15:29:40.127Z,63.26
2022-09-20T15:32:10.657Z,63.53
2022-09-20T15:34:39.858Z,63.81
2022-09-20T15:37:07.956Z,63.53
2022-09-20T15:39:35.657Z,63.91
2022-09-20T15:42:03.969Z,63.39
2022-09-20T15:44:32.652Z,64.19
2022-09-20T15:47:00.475Z,64.21
2022-09-20T15:49:31.159Z,64.37
2022-09-20T15:51:58.998Z,64.27
2022-09-20T15:54:27.025Z,64.58
2022-09-20T15:56:54.846Z,64.87
2022-09-20T15:59:23.449Z,64.73
2022-09-20T16:01:51.788Z,64.63
2022-09-20T16:04:20.003Z,64.66
2022-09-20T16:06:49.752Z,64.46
2022-09-20T16:09:19.443Z,64.42
2022-09-20T16:11:48.552Z,64.50
2022-09-20T16:14:16.861Z,64.12
2022-09-20T16:16:44.626Z,64.23
2022-09-20T16:19:20.091Z,64.22
2022-09-20T16:21:58.613Z,64.17
2022-09-20T16:24:30.207Z,62.22
2022-09-20T16:26:59.033Z,61.31
2022-09-20T16:29:29.477Z,61.48
2022-09-20T16:31:58.643Z,64.07
2022-09-20T16:34:34.712Z,62.92
2022-09-20T16:37:16.785Z,64.95
2022-09-20T16:39:44.724Z,65.74
2022-09-20T16:42:13.510Z,65.59
2022-09-20T16:44:43.122Z,62.82
2022-09-20T16:47:22.057Z,63.28
2022-09-20T16:49:50.531Z,65.78
2022-09-20T16:52:18.948Z,66.49
2022-09-20T16:54:46.797Z,66.99
2022-09-20T16:57:15.467Z,67.24
2022-09-20T16:59:43.251Z,64.48
2022-09-20T17:02:12.485Z,66.41
2022-09-20T17:04:40.442Z,67.22
2022-09-20T17:07:08.826Z,67.44
2022-09-20T17:09:36.433Z,67.58
2022-09-20T17:12:06.599Z,67.76
2022-09-20T17:14:34.257Z,67.59
2022-09-20T17:17:01.891Z,67.70
2022-09-20T17:19:29.483Z,68.06
2022-09-20T17:21:57.271Z,68.03
2022-09-20T17:24:25.368Z,68.27
2022-09-20T17:26:53.976Z,68.32
2022-09-20T17:29:21.989Z,67.00
2022-09-20T17:31:55.740Z,67.98
2022-09-20T17:34:25.326Z,68.02
2022-09-20T17:36:55.269Z,68.42
2022-09-20T17:39:23.523Z,67.96
2022-09-20T17:41:51.546Z,67.52
2022-09-20T17:44:19.389Z,68.00
2022-09-20T17:46:49.847Z,68.00
2022-09-20T17:49:19.762Z,67.93
2022-09-20T17:51:51.245Z,67.52
2022-09-20T17:54:20.180Z,67.73
2022-09-20T17:56:50.207Z,67.74
2022-09-20T17:59:18.565Z,67.78
2022-09-20T18:01:48.376Z,67.93
2022-09-20T18:04:16.445Z,67.65
2022-09-20T18:06:49.080Z,67.75
2022-09-20T18:09:19.297Z,67.79
2022-09-20T18:11:49.852Z,67.61
2022-09-20T18:14:21.121Z,67.77
2022-09-20T18:16:52.181Z,67.80
2022-09-20T18:19:21.574Z,67.80
2022-09-20T18:21:49.256Z,67.85
2022-09-20T18:24:16.947Z,67.73
2022-09-20T18:26:45.822Z,68.21
2022-09-20T18:29:17.786Z,67.98
2022-09-20T18:31:48.032Z,67.50
2022-09-20T18:34:21.090Z,67.83
2022-09-20T18:36:56.348Z,67.72
2022-09-20T18:39:26.171Z,67.78
2022-09-20T18:41:54.741Z,67.75
2022-09-20T18:44:22.997Z,67.82
2022-09-20T18:46:54.201Z,67.94
2022-09-20T18:49:22.238Z,67.56
2022-09-20T18:51:50.607Z,67.81
2022-09-20T18:54:18.988Z,67.85
2022-09-20T18:56:48.957Z,67.75
2022-09-20T18:59:18.101Z,67.65
2022-09-20T19:01:55.178Z,67.46
2022-09-20T19:04:42.137Z,67.53
2022-09-20T19:07:12.760Z,66.35
2022-09-20T19:09:56.553Z,67.26
2022-09-20T19:12:32.973Z,67.65
2022-09-20T19:15:04.956Z,67.55
2022-09-20T19:17:48.069Z,67.56
2022-09-20T19:20:43.079Z,67.36
2022-09-20T19:23:33.792Z,67.44
2022-09-20T19:26:20.348Z,67.63
2022-09-20T19:28:52.844Z,67.40
2022-09-20T19:31:29.456Z,67.45
2022-09-20T19:33:59.323Z,67.57
2022-09-20T19:36:57.791Z,67.79
2022-09-20T19:39:54.262Z,67.82
2022-09-20T19:42:42.523Z,67.57
2022-09-20T19:45:39.168Z,67.66
2022-09-20T19:48:22.138Z,65.44
2022-09-20T19:50:52.475Z,67.38
2022-09-20T19:53:22.481Z,67.81
2022-09-20T19:55:56.636Z,67.85
2022-09-20T19:58:24.632Z,67.35
2022-09-20T20:00:52.972Z,67.61
2022-09-20T20:03:23.547Z,67.61
2022-09-20T20:05:56.566Z,67.57
2022-09-20T20:08:30.701Z,67.73
2022-09-20T20:11:36.142Z,67.74
2022-09-20T20:14:22.735Z,67.65
2022-09-20T20:17:08.129Z,67.53
2022-09-20T20:19:41.460Z,67.44
2022-09-20T20:22:20.911Z,67.28
2022-09-20T20:24:51.829Z,67.23
2022-09-20T20:27:20.479Z,67.12
2022-09-20T20:29:49.248Z,67.17
2022-09-20T20:32:17.089Z,67.24
2022-09-20T20:34:45.251Z,67.21
2022-09-20T20:37:13.960Z,67.19
2022-09-20T20:39:41.772Z,67.07
2022-09-20T20:42:12.010Z,66.75
2022-09-20T20:44:40.768Z,66.85
2022-09-20T20:47:08.761Z,66.33
2022-09-20T20:49:36.523Z,66.75
2022-09-20T20:52:08.847Z,66.74
2022-09-20T20:54:36.481Z,66.78
2022-09-20T20:57:04.360Z,67.71
2022-09-20T20:59:31.984Z,67.61
2022-09-20T21:02:04.543Z,67.64
2022-09-20T21:04:35.301Z,67.42
2022-09-20T21:07:04.129Z,67.66
2022-09-20T21:09:32.243Z,67.68
2022-09-20T21:11:59.882Z,67.86
2022-09-20T21:14:27.500Z,68.39
2022-09-20T21:16:55.344Z,68.80
2022-09-20T21:19:23.965Z,68.85
2022-09-20T21:21:51.798Z,68.82
2022-09-20T21:24:19.555Z,68.65
2022-09-20T21:26:47.583Z,68.11
2022-09-20T21:29:16.601Z,68.52
2022-09-20T21:31:45.964Z,68.02
2022-09-20T21:34:15.777Z,68.15
2022-09-20T21:36:44.689Z,67.13
2022-09-20T21:39:12.872Z,68.94
2022-09-20T21:41:41.297Z,67.48
2022-09-20T21:44:12.264Z,67.29
2022-09-20T21:46:41.350Z,67.21
2022-09-20T21:49:11.244Z,67.38
2022-09-20T21:51:39.466Z,67.52
2022-09-20T21:54:07.411Z,66.48
2022-09-20T21:56:36.888Z,67.64
2022-09-20T21:59:06.306Z,68.55
2022-09-20T22:01:37.234Z,68.01
2022-09-20T22:04:10.005Z,67.34
2022-09-20T22:06:42.799Z,67.53
2022-09-20T22:09:15.442Z,67.92
2022-09-20T22:11:47.723Z,67.43
2022-09-20T22:14:17.357Z,67.52
2022-09-20T22:16:46.797Z,67.85
2022-09-20T22:19:14.981Z,67.60
2022-09-20T22:21:45.048Z,67.55
2022-09-20T22:24:13.813Z,67.65
2022-09-20T22:26:49.769Z,68.45
2022-09-20T22:29:18.489Z,69.10
2022-09-20T22:31:50.042Z,69.33
2022-09-20T22:34:20.240Z,69.18
2022-09-20T22:36:48.411Z,68.77
2022-09-20T22:39:17.114Z,69.12
2022-09-20T22:41:47.818Z,68.93
2022-09-20T22:44:15.797Z,68.76
2022-09-20T22:46:43.917Z,68.01
2022-09-20T22:49:11.796Z,68.48
2022-09-20T22:51:39.585Z,69.19
2022-09-20T22:54:09.272Z,68.83
2022-09-20T22:56:38.555Z,68.83
2022-09-20T22:59:11.217Z,68.69
2022-09-20T23:01:46.138Z,69.03
2022-09-20T23:04:16.574Z,68.69
2022-09-20T23:06:49.257Z,68.76
2022-09-20T23:09:18.115Z,69.09
2022-09-20T23:11:46.658Z,69.15
2022-09-20T23:14:19.111Z,69.63
2022-09-20T23:16:47.718Z,69.93
2022-09-20T23:19:15.705Z,70.45
2022-09-20T23:21:43.859Z,69.41
2022-09-20T23:24:13.083Z,69.33
2022-09-20T23:26:41.604Z,68.94
2022-09-20T23:29:12.030Z,68.70
2022-09-20T23:31:45.618Z,69.18
2022-09-20T23:34:15.670Z,68.95
2022-09-20T23:36:44.821Z,68.83
2022-09-20T23:39:12.534Z,68.39
2022-09-20T23:41:41.487Z,68.89
2022-09-20T23:44:10.208Z,69.20
2022-09-20T23:46:39.326Z,68.54
2022-09-20T23:49:09.259Z,69.04
2022-09-20T23:51:37.384Z,69.14
2022-09-20T23:54:05.856Z,68.96
2022-09-20T23:56:33.584Z,69.65
2022-09-20T23:59:01.986Z,69.65
